X  Close Metar Aviation Weather Data     LIML Milano Linate Airport
Temperature
28°C Temperature
16°C Dewpoint
48% Humidity



Wind
10 KM/H
6 MPH
3 M/S
5 KTS



100°
E
Current Conditions

Clear Clear
Pressure 1015.92 (hPa) - 30 (inHg)
Visibility 6.2 (mile) - 10 (km)
Airport
Airport-code LIML

Location: Milano Linate Airport
Distance: 6 (km)

Metar:
LIML 260850Z 10005KT 030V190 CAVOK 28/16 Q1016 NOSIG

Time: 26-06-2022 10:50 CEST